sensor_id;sensor_type;location;lat;lon;timestamp;pressure;altitude;pressure_sealevel;temperature;humidity
30182;BME280;16990;49.056;9.240;2022-10-13T00:02:09;99286.50;;;10.79;100.00
30182;BME280;16990;49.056;9.240;2022-10-13T00:04:36;99291.03;;;10.78;100.00
30182;BME280;16990;49.056;9.240;2022-10-13T00:07:02;99290.59;;;10.81;100.00
30182;BME280;16990;49.056;9.240;2022-10-13T00:09:29;99291.03;;;10.78;100.00
30182;BME280;16990;49.056;9.240;2022-10-13T00:11:57;99291.84;;;10.79;100.00
30182;BME280;16990;49.056;9.240;2022-10-13T00:14:24;99296.59;;;10.77;100.00
30182;BME280;16990;49.056;9.240;2022-10-13T00:16:50;99293.91;;;10.77;100.00
30182;BME280;16990;49.056;9.240;2022-10-13T00:19:17;99296.00;;;10.75;100.00
30182;BME280;16990;49.056;9.240;2022-10-13T00:21:44;99297.66;;;10.76;100.00
30182;BME280;16990;49.056;9.240;2022-10-13T00:24:11;99295.19;;;10.74;100.00
30182;BME280;16990;49.056;9.240;2022-10-13T00:26:37;99294.38;;;10.74;100.00
30182;BME280;16990;49.056;9.240;2022-10-13T00:29:05;99293.31;;;10.75;100.00
30182;BME280;16990;49.056;9.240;2022-10-13T00:31:32;99300.94;;;10.78;100.00
30182;BME280;16990;49.056;9.240;2022-10-13T00:34:00;99301.78;;;10.72;100.00
30182;BME280;16990;49.056;9.240;2022-10-13T00:36:27;99297.75;;;10.62;100.00
30182;BME280;16990;49.056;9.240;2022-10-13T00:38:55;99307.84;;;10.60;100.00
30182;BME280;16990;49.056;9.240;2022-10-13T00:41:22;99297.00;;;10.55;100.00
30182;BME280;16990;49.056;9.240;2022-10-13T00:43:54;99299.97;;;10.47;100.00
30182;BME280;16990;49.056;9.240;2022-10-13T00:46:25;99291.56;;;10.43;100.00
30182;BME280;16990;49.056;9.240;2022-10-13T00:48:53;99300.41;;;10.44;100.00
30182;BME280;16990;49.056;9.240;2022-10-13T00:51:23;99300.78;;;10.48;100.00
30182;BME280;16990;49.056;9.240;2022-10-13T00:53:52;99305.03;;;10.55;100.00
30182;BME280;16990;49.056;9.240;2022-10-13T00:56:20;99293.81;;;10.47;100.00
30182;BME280;16990;49.056;9.240;2022-10-13T00:58:49;99298.06;;;10.54;100.00
30182;BME280;16990;49.056;9.240;2022-10-13T01:01:15;99306.44;;;10.58;100.00
30182;BME280;16990;49.056;9.240;2022-10-13T01:03:43;99291.81;;;10.60;100.00
30182;BME280;16990;49.056;9.240;2022-10-13T01:06:10;99296.75;;;10.63;100.00
30182;BME280;16990;49.056;9.240;2022-10-13T01:08:38;99297.09;;;10.67;100.00
30182;BME280;16990;49.056;9.240;2022-10-13T01:11:23;99295.25;;;10.68;100.00
30182;BME280;16990;49.056;9.240;2022-10-13T01:13:58;99286.66;;;10.66;100.00
30182;BME280;16990;49.056;9.240;2022-10-13T01:16:33;99293.63;;;10.67;100.00
30182;BME280;16990;49.056;9.240;2022-10-13T01:19:23;99294.22;;;10.69;100.00
30182;BME280;16990;49.056;9.240;2022-10-13T01:21:57;99292.34;;;10.69;100.00
30182;BME280;16990;49.056;9.240;2022-10-13T01:24:41;99289.63;;;10.76;100.00
30182;BME280;16990;49.056;9.240;2022-10-13T01:27:22;99295.72;;;10.83;100.00
30182;BME280;16990;49.056;9.240;2022-10-13T01:30:13;99279.81;;;10.88;100.00
30182;BME280;16990;49.056;9.240;2022-10-13T01:33:03;99275.66;;;10.92;100.00
30182;BME280;16990;49.056;9.240;2022-10-13T01:35:44;99274.41;;;10.95;100.00
30182;BME280;16990;49.056;9.240;2022-10-13T01:38:21;99277.28;;;10.93;100.00
30182;BME280;16990;49.056;9.240;2022-10-13T01:40:59;99273.59;;;10.94;100.00
30182;BME280;16990;49.056;9.240;2022-10-13T01:43:30;99253.00;;;10.95;100.00
30182;BME280;16990;49.056;9.240;2022-10-13T01:46:05;99258.72;;;10.98;100.00
30182;BME280;16990;49.056;9.240;2022-10-13T01:48:35;99260.78;;;10.96;100.00
30182;BME280;16990;49.056;9.240;2022-10-13T01:51:05;99258.78;;;10.92;100.00
30182;BME280;16990;49.056;9.240;2022-10-13T01:53:33;99245.50;;;10.85;100.00
30182;BME280;16990;49.056;9.240;2022-10-13T01:56:00;99251.34;;;10.94;100.00
30182;BME280;16990;49.056;9.240;2022-10-13T01:58:29;99258.72;;;10.98;100.00
30182;BME280;16990;49.056;9.240;2022-10-13T02:01:21;99257.09;;;10.97;100.00
30182;BME280;16990;49.056;9.240;2022-10-13T02:03:57;99261.09;;;11.06;100.00
30182;BME280;16990;49.056;9.240;2022-10-13T02:06:30;99256.03;;;11.17;100.00
30182;BME280;16990;49.056;9.240;2022-10-13T02:09:02;99266.28;;;11.20;100.00
30182;BME280;16990;49.056;9.240;2022-10-13T02:11:30;99254.03;;;11.31;100.00
30182;BME280;16990;49.056;9.240;2022-10-13T02:14:00;99253.22;;;11.12;100.00
30182;BME280;16990;49.056;9.240;2022-10-13T02:16:34;99258.03;;;11.03;100.00
30182;BME280;16990;49.056;9.240;2022-10-13T02:19:03;99258.56;;;11.12;100.00
30182;BME280;16990;49.056;9.240;2022-10-13T02:21:31;99251.44;;;11.05;100.00
30182;BME280;16990;49.056;9.240;2022-10-13T02:23:59;99260.72;;;11.03;100.00
30182;BME280;16990;49.056;9.240;2022-10-13T02:26:28;99265.72;;;10.99;100.00
30182;BME280;16990;49.056;9.240;2022-10-13T02:28:55;99270.75;;;11.07;100.00
30182;BME280;16990;49.056;9.240;2022-10-13T02:31:22;99265.84;;;11.04;100.00
30182;BME280;16990;49.056;9.240;2022-10-13T02:33:50;99263.78;;;11.06;100.00
30182;BME280;16990;49.056;9.240;2022-10-13T02:36:17;99268.88;;;11.08;100.00
30182;BME280;16990;49.056;9.240;2022-10-13T02:38:43;99263.63;;;11.01;100.00
30182;BME280;16990;49.056;9.240;2022-10-13T02:41:10;99266.88;;;11.03;100.00
30182;BME280;16990;49.056;9.240;2022-10-13T02:43:37;99266.00;;;11.10;100.00
30182;BME280;16990;49.056;9.240;2022-10-13T02:46:04;99263.78;;;11.06;100.00
30182;BME280;16990;49.056;9.240;2022-10-13T02:48:30;99259.44;;;11.05;100.00
30182;BME280;16990;49.056;9.240;2022-10-13T02:50:58;99264.28;;;11.15;100.00
30182;BME280;16990;49.056;9.240;2022-10-13T02:53:25;99269.63;;;11.15;100.00
30182;BME280;16990;49.056;9.240;2022-10-13T02:55:52;99256.31;;;11.27;100.00
30182;BME280;16990;49.056;9.240;2022-10-13T02:58:18;99258.84;;;11.22;100.00
30182;BME280;16990;49.056;9.240;2022-10-13T03:00:45;99253.28;;;11.23;100.00
30182;BME280;16990;49.056;9.240;2022-10-13T03:03:12;99252.88;;;11.38;100.00
30182;BME280;16990;49.056;9.240;2022-10-13T03:05:38;99263.91;;;11.30;100.00
30182;BME280;16990;49.056;9.240;2022-10-13T03:08:07;99249.63;;;11.36;100.00
30182;BME280;16990;49.056;9.240;2022-10-13T03:10:33;99261.81;;;11.32;100.00
30182;BME280;16990;49.056;9.240;2022-10-13T03:13:00;99254.63;;;11.33;100.00
30182;BME280;16990;49.056;9.240;2022-10-13T03:15:27;99243.53;;;11.29;100.00
30182;BME280;16990;49.056;9.240;2022-10-13T03:17:53;99254.81;;;11.31;100.00
30182;BME280;16990;49.056;9.240;2022-10-13T03:20:20;99242.34;;;11.25;100.00
30182;BME280;16990;49.056;9.240;2022-10-13T03:22:47;99245.19;;;11.30;100.00
30182;BME280;16990;49.056;9.240;2022-10-13T03:25:15;99234.09;;;11.26;100.00
30182;BME280;16990;49.056;9.240;2022-10-13T03:27:42;99234.91;;;11.27;100.00
30182;BME280;16990;49.056;9.240;2022-10-13T03:30:09;99237.81;;;11.25;100.00
30182;BME280;16990;49.056;9.240;2022-10-13T03:32:36;99234.53;;;11.23;100.00
30182;BME280;16990;49.056;9.240;2022-10-13T03:35:03;99224.88;;;11.22;100.00
30182;BME280;16990;49.056;9.240;2022-10-13T03:37:31;99227.94;;;11.26;100.00
30182;BME280;16990;49.056;9.240;2022-10-13T03:39:57;99225.72;;;11.23;100.00
30182;BME280;16990;49.056;9.240;2022-10-13T03:42:25;99233.28;;;11.26;100.00
30182;BME280;16990;49.056;9.240;2022-10-13T03:44:52;99228.94;;;11.25;100.00
30182;BME280;16990;49.056;9.240;2022-10-13T03:47:18;99223.47;;;11.20;100.00
30182;BME280;16990;49.056;9.240;2022-10-13T03:49:45;99219.91;;;11.26;100.00
30182;BME280;16990;49.056;9.240;2022-10-13T03:52:12;99219.75;;;11.21;100.00
30182;BME280;16990;49.056;9.240;2022-10-13T03:54:38;99230.47;;;11.21;100.00
30182;BME280;16990;49.056;9.240;2022-10-13T03:57:05;99231.78;;;11.30;100.00
30182;BME280;16990;49.056;9.240;2022-10-13T03:59:33;99235.34;;;11.24;100.00
30182;BME280;16990;49.056;9.240;2022-10-13T04:02:00;99227.31;;;11.24;100.00
30182;BME280;16990;49.056;9.240;2022-10-13T04:04:26;99228.22;;;11.18;100.00
30182;BME280;16990;49.056;9.240;2022-10-13T04:06:53;99228.38;;;11.23;100.00
30182;BME280;16990;49.056;9.240;2022-10-13T04:09:20;99227.94;;;11.26;100.00
30182;BME280;16990;49.056;9.240;2022-10-13T04:11:49;99227.94;;;11.26;100.00
30182;BME280;16990;49.056;9.240;2022-10-13T04:14:16;99225.91;;;11.21;100.00
30182;BME280;16990;49.056;9.240;2022-10-13T04:16:45;99218.50;;;11.23;100.00
30182;BME280;16990;49.056;9.240;2022-10-13T04:19:13;99219.31;;;11.24;100.00
30182;BME280;16990;49.056;9.240;2022-10-13T04:21:40;99215.00;;;11.23;100.00
30182;BME280;16990;49.056;9.240;2022-10-13T04:24:10;99225.72;;;11.23;100.00
30182;BME280;16990;49.056;9.240;2022-10-13T04:26:38;99222.56;;;11.26;100.00
30182;BME280;16990;49.056;9.240;2022-10-13T04:29:06;99223.59;;;11.25;100.00
30182;BME280;16990;49.056;9.240;2022-10-13T04:31:34;99214.75;;;11.24;100.00
30182;BME280;16990;49.056;9.240;2022-10-13T04:34:03;99220.34;;;11.23;100.00
30182;BME280;16990;49.056;9.240;2022-10-13T04:36:29;99222.19;;;11.22;100.00
30182;BME280;16990;49.056;9.240;2022-10-13T04:38:56;99219.31;;;11.24;100.00
30182;BME280;16990;49.056;9.240;2022-10-13T04:41:23;99206.97;;;11.23;100.00
30182;BME280;16990;49.056;9.240;2022-10-13T04:43:51;99218.91;;;11.20;100.00
30182;BME280;16990;49.056;9.240;2022-10-13T04:46:20;99208.59;;;11.24;100.00
30182;BME280;16990;49.056;9.240;2022-10-13T04:48:47;99220.50;;;11.28;100.00
30182;BME280;16990;49.056;9.240;2022-10-13T04:51:17;99216.75;;;11.29;100.00
30182;BME280;16990;49.056;9.240;2022-10-13T04:53:44;99212.59;;;11.33;100.00
30182;BME280;16990;49.056;9.240;2022-10-13T04:56:14;99210.50;;;11.35;100.00
30182;BME280;16990;49.056;9.240;2022-10-13T04:58:42;99207.38;;;11.38;100.00
30182;BME280;16990;49.056;9.240;2022-10-13T05:01:12;99207.59;;;11.37;100.00
30182;BME280;16990;49.056;9.240;2022-10-13T05:03:40;99198.53;;;11.38;100.00
30182;BME280;16990;49.056;9.240;2022-10-13T05:06:12;99196.19;;;11.41;100.00
30182;BME280;16990;49.056;9.240;2022-10-13T05:08:41;99200.28;;;11.44;100.00
30182;BME280;16990;49.056;9.240;2022-10-13T05:11:08;99197.03;;;11.54;100.00
30182;BME280;16990;49.056;9.240;2022-10-13T05:13:35;99205.81;;;11.61;100.00
30182;BME280;16990;49.056;9.240;2022-10-13T05:16:05;99212.22;;;11.60;100.00
30182;BME280;16990;49.056;9.240;2022-10-13T05:18:32;99216.50;;;11.61;100.00
30182;BME280;16990;49.056;9.240;2022-10-13T05:21:05;99211.63;;;11.58;100.00
30182;BME280;16990;49.056;9.240;2022-10-13T05:23:31;99218.59;;;11.59;100.00
30182;BME280;16990;49.056;9.240;2022-10-13T05:26:01;99216.50;;;11.61;100.00
30182;BME280;16990;49.056;9.240;2022-10-13T05:28:28;99217.59;;;11.71;100.00
30182;BME280;16990;49.056;9.240;2022-10-13T05:30:55;99214.13;;;11.71;100.00
30182;BME280;16990;49.056;9.240;2022-10-13T05:33:21;99224.13;;;12.18;100.00
30182;BME280;16990;49.056;9.240;2022-10-13T05:35:48;99220.38;;;12.54;100.00
30182;BME280;16990;49.056;9.240;2022-10-13T05:38:15;99218.28;;;12.68;100.00
30182;BME280;16990;49.056;9.240;2022-10-13T05:40:41;99222.25;;;12.65;100.00
30182;BME280;16990;49.056;9.240;2022-10-13T05:43:09;99227.28;;;12.50;100.00
30182;BME280;16990;49.056;9.240;2022-10-13T05:45:36;99233.22;;;12.40;100.00
30182;BME280;16990;49.056;9.240;2022-10-13T05:48:04;99220.28;;;12.25;100.00
30182;BME280;16990;49.056;9.240;2022-10-13T05:50:31;99226.56;;;12.19;100.00
30182;BME280;16990;49.056;9.240;2022-10-13T05:52:58;99225.50;;;12.20;100.00
30182;BME280;16990;49.056;9.240;2022-10-13T05:55:24;99218.97;;;12.16;100.00
30182;BME280;16990;49.056;9.240;2022-10-13T05:57:51;99217.13;;;12.17;100.00
30182;BME280;16990;49.056;9.240;2022-10-13T06:00:19;99217.47;;;12.08;100.00
30182;BME280;16990;49.056;9.240;2022-10-13T06:02:51;99205.81;;;12.03;100.00
30182;BME280;16990;49.056;9.240;2022-10-13T06:05:20;99197.66;;;11.98;100.00
30182;BME280;16990;49.056;9.240;2022-10-13T06:07:49;99199.38;;;11.92;100.00
30182;BME280;16990;49.056;9.240;2022-10-13T06:10:16;99203.59;;;12.00;100.00
30182;BME280;16990;49.056;9.240;2022-10-13T06:12:43;99197.88;;;12.08;100.00
30182;BME280;16990;49.056;9.240;2022-10-13T06:15:10;99201.03;;;12.05;100.00
30182;BME280;16990;49.056;9.240;2022-10-13T06:17:38;99191.34;;;12.04;100.00
30182;BME280;16990;49.056;9.240;2022-10-13T06:20:06;99199.66;;;12.02;100.00
30182;BME280;16990;49.056;9.240;2022-10-13T06:22:36;99194.28;;;12.14;100.00
30182;BME280;16990;49.056;9.240;2022-10-13T06:25:04;99206.16;;;12.06;100.00
30182;BME280;16990;49.056;9.240;2022-10-13T06:27:32;99206.41;;;12.05;100.00
30182;BME280;16990;49.056;9.240;2022-10-13T06:29:58;99198.81;;;12.02;100.00
30182;BME280;16990;49.056;9.240;2022-10-13T06:32:25;99206.16;;;12.06;100.00
30182;BME280;16990;49.056;9.240;2022-10-13T06:34:53;99205.81;;;12.03;100.00
30182;BME280;16990;49.056;9.240;2022-10-13T06:37:20;99201.84;;;12.05;100.00
30182;BME280;16990;49.056;9.240;2022-10-13T06:39:47;99205.47;;;12.11;100.00
30182;BME280;16990;49.056;9.240;2022-10-13T06:42:13;99202.56;;;12.24;100.00
30182;BME280;16990;49.056;9.240;2022-10-13T06:44:40;99209.31;;;12.39;100.00
30182;BME280;16990;49.056;9.240;2022-10-13T06:47:07;99212.22;;;12.25;100.00
30182;BME280;16990;49.056;9.240;2022-10-13T06:49:34;99202.56;;;12.24;100.00
30182;BME280;16990;49.056;9.240;2022-10-13T06:52:02;99213.41;;;12.29;100.00
30182;BME280;16990;49.056;9.240;2022-10-13T06:54:29;99207.13;;;12.36;100.00
30182;BME280;16990;49.056;9.240;2022-10-13T06:56:56;99207.81;;;12.31;100.00
30182;BME280;16990;49.056;9.240;2022-10-13T06:59:23;99204.78;;;12.39;100.00
30182;BME280;16990;49.056;9.240;2022-10-13T07:01:50;99198.59;;;12.39;100.00
30182;BME280;16990;49.056;9.240;2022-10-13T07:04:17;99199.03;;;12.47;100.00
30182;BME280;16990;49.056;9.240;2022-10-13T07:06:44;99201.28;;;12.50;100.00
30182;BME280;16990;49.056;9.240;2022-10-13T07:09:12;99197.41;;;12.58;100.00
30182;BME280;16990;49.056;9.240;2022-10-13T07:11:42;99196.09;;;12.72;100.00
30182;BME280;16990;49.056;9.240;2022-10-13T07:14:09;99196.00;;;12.67;100.00
30182;BME280;16990;49.056;9.240;2022-10-13T07:16:36;99197.03;;;12.66;100.00
30182;BME280;16990;49.056;9.240;2022-10-13T07:19:02;99200.78;;;12.65;100.00
30182;BME280;16990;49.056;9.240;2022-10-13T07:21:29;99195.91;;;12.62;100.00
30182;BME280;16990;49.056;9.240;2022-10-13T07:23:56;99194.84;;;12.63;100.00
30182;BME280;16990;49.056;9.240;2022-10-13T07:26:24;99198.09;;;12.77;100.00
30182;BME280;16990;49.056;9.240;2022-10-13T07:28:51;99189.81;;;12.79;100.00
30182;BME280;16990;49.056;9.240;2022-10-13T07:31:19;99180.78;;;12.85;100.00
30182;BME280;16990;49.056;9.240;2022-10-13T07:33:48;99187.56;;;12.75;100.00
30182;BME280;16990;49.056;9.240;2022-10-13T07:36:14;99185.47;;;12.77;100.00
30182;BME280;16990;49.056;9.240;2022-10-13T07:38:41;99176.78;;;12.99;100.00
30182;BME280;16990;49.056;9.240;2022-10-13T07:41:09;99177.41;;;12.89;100.00
30182;BME280;16990;49.056;9.240;2022-10-13T07:43:39;99187.41;;;13.06;100.00
30182;BME280;16990;49.056;9.240;2022-10-13T07:46:06;99176.16;;;13.09;100.00
30182;BME280;16990;49.056;9.240;2022-10-13T07:48:34;99175.13;;;13.10;100.00
30182;BME280;16990;49.056;9.240;2022-10-13T07:51:03;99184.19;;;13.20;100.00
30182;BME280;16990;49.056;9.240;2022-10-13T07:53:31;99182.38;;;13.38;100.00
30182;BME280;16990;49.056;9.240;2022-10-13T07:55:59;99184.25;;;13.37;100.00
30182;BME280;16990;49.056;9.240;2022-10-13T07:58:26;99191.69;;;13.47;100.00
30182;BME280;16990;49.056;9.240;2022-10-13T08:00:57;99183.69;;;13.35;100.00
30182;BME280;16990;49.056;9.240;2022-10-13T08:03:25;99175.63;;;13.35;100.00
30182;BME280;16990;49.056;9.240;2022-10-13T08:05:52;99174.91;;;13.57;100.00
30182;BME280;16990;49.056;9.240;2022-10-13T08:08:19;99171.25;;;13.46;100.00
30182;BME280;16990;49.056;9.240;2022-10-13T08:10:46;99185.72;;;13.45;100.00
30182;BME280;16990;49.056;9.240;2022-10-13T08:13:13;99166.94;;;13.45;100.00
30182;BME280;16990;49.056;9.240;2022-10-13T08:15:40;99172.28;;;13.45;100.00
30182;BME280;16990;49.056;9.240;2022-10-13T08:18:10;99173.88;;;13.58;100.00
30182;BME280;16990;49.056;9.240;2022-10-13T08:20:38;99166.28;;;13.55;100.00
30182;BME280;16990;49.056;9.240;2022-10-13T08:23:05;99161.19;;;13.70;100.00
30182;BME280;16990;49.056;9.240;2022-10-13T08:25:35;99166.56;;;13.70;100.00
30182;BME280;16990;49.056;9.240;2022-10-13T08:28:03;99150.38;;;13.82;100.00
30182;BME280;16990;49.056;9.240;2022-10-13T08:30:30;99158.09;;;13.95;100.00
30182;BME280;16990;49.056;9.240;2022-10-13T08:32:56;99173.09;;;13.91;100.00
30182;BME280;16990;49.056;9.240;2022-10-13T08:35:25;99171.78;;;14.11;100.00
30182;BME280;16990;49.056;9.240;2022-10-13T08:40:20;99172.03;;;14.48;100.00
30182;BME280;16990;49.056;9.240;2022-10-13T08:42:48;99168.78;;;14.63;100.00
30182;BME280;16990;49.056;9.240;2022-10-13T08:45:19;99169.47;;;14.75;100.00
30182;BME280;16990;49.056;9.240;2022-10-13T08:47:48;99173.88;;;14.86;98.34
30182;BME280;16990;49.056;9.240;2022-10-13T08:50:21;99173.00;;;15.03;97.73
30182;BME280;16990;49.056;9.240;2022-10-13T08:52:53;99158.13;;;14.95;99.56
30182;BME280;16990;49.056;9.240;2022-10-13T08:55:25;99168.19;;;15.05;100.00
30182;BME280;16990;49.056;9.240;2022-10-13T08:57:53;99160.06;;;15.27;96.93
30182;BME280;16990;49.056;9.240;2022-10-13T09:00:20;99161.44;;;15.29;96.44
30182;BME280;16990;49.056;9.240;2022-10-13T09:02:48;99152.03;;;15.32;96.49
30182;BME280;16990;49.056;9.240;2022-10-13T09:05:21;99159.47;;;15.47;95.70
30182;BME280;16990;49.056;9.240;2022-10-13T09:07:52;99153.31;;;15.51;94.70
30182;BME280;16990;49.056;9.240;2022-10-13T09:10:21;99155.75;;;15.53;94.93
30182;BME280;16990;49.056;9.240;2022-10-13T09:12:47;99156.34;;;15.60;94.76
30182;BME280;16990;49.056;9.240;2022-10-13T09:15:16;99160.72;;;15.66;95.22
30182;BME280;16990;49.056;9.240;2022-10-13T09:17:44;99156.66;;;15.64;92.73
30182;BME280;16990;49.056;9.240;2022-10-13T09:20:18;99151.75;;;15.61;94.26
30182;BME280;16990;49.056;9.240;2022-10-13T09:23:01;99151.06;;;15.70;93.49
30182;BME280;16990;49.056;9.240;2022-10-13T09:25:29;99150.06;;;15.77;93.20
30182;BME280;16990;49.056;9.240;2022-10-13T09:28:09;99147.94;;;15.84;92.20
30182;BME280;16990;49.056;9.240;2022-10-13T09:30:39;99148.53;;;15.91;91.33
30182;BME280;16990;49.056;9.240;2022-10-13T09:33:21;99153.38;;;15.89;90.71
30182;BME280;16990;49.056;9.240;2022-10-13T09:36:06;99149.72;;;16.05;91.13
30182;BME280;16990;49.056;9.240;2022-10-13T09:38:37;99152.41;;;16.05;91.65
30182;BME280;16990;49.056;9.240;2022-10-13T09:41:06;99147.06;;;16.10;91.50
30182;BME280;16990;49.056;9.240;2022-10-13T09:43:40;99156.34;;;16.30;90.30
30182;BME280;16990;49.056;9.240;2022-10-13T09:46:12;99144.38;;;16.15;90.40
30182;BME280;16990;49.056;9.240;2022-10-13T09:48:47;99149.28;;;16.19;90.47
30182;BME280;16990;49.056;9.240;2022-10-13T09:51:29;99167.16;;;16.35;90.17
30182;BME280;16990;49.056;9.240;2022-10-13T09:53:59;99158.25;;;16.29;89.09
30182;BME280;16990;49.056;9.240;2022-10-13T09:56:30;99158.47;;;16.23;88.42
30182;BME280;16990;49.056;9.240;2022-10-13T09:59:06;99157.31;;;16.13;89.02
30182;BME280;16990;49.056;9.240;2022-10-13T10:01:36;99151.09;;;16.08;88.82
30182;BME280;16990;49.056;9.240;2022-10-13T10:04:09;99142.81;;;16.20;89.19
30182;BME280;16990;49.056;9.240;2022-10-13T10:06:37;99140.59;;;16.11;89.36
30182;BME280;16990;49.056;9.240;2022-10-13T10:09:21;99131.28;;;15.92;89.85
30182;BME280;16990;49.056;9.240;2022-10-13T10:11:52;99128.69;;;16.02;89.92
30182;BME280;16990;49.056;9.240;2022-10-13T10:14:24;99138.69;;;16.07;90.92
30182;BME280;16990;49.056;9.240;2022-10-13T10:16:55;99151.44;;;16.16;89.45
30182;BME280;16990;49.056;9.240;2022-10-13T10:19:27;99148.19;;;16.20;89.60
30182;BME280;16990;49.056;9.240;2022-10-13T10:21:59;99143.34;;;16.16;89.21
30182;BME280;16990;49.056;9.240;2022-10-13T10:24:35;99150.09;;;16.19;89.96
30182;BME280;16990;49.056;9.240;2022-10-13T10:27:06;99140.66;;;16.22;89.47
30182;BME280;16990;49.056;9.240;2022-10-13T10:29:44;99138.22;;;16.20;90.11
30182;BME280;16990;49.056;9.240;2022-10-13T10:32:36;99133.44;;;16.37;88.06
30182;BME280;16990;49.056;9.240;2022-10-13T10:35:11;99134.72;;;16.20;88.04
30182;BME280;16990;49.056;9.240;2022-10-13T10:37:52;99141.13;;;16.13;89.87
30182;BME280;16990;49.056;9.240;2022-10-13T10:40:31;99141.91;;;16.09;90.16
30182;BME280;16990;49.056;9.240;2022-10-13T10:43:22;99142.22;;;16.12;90.47
30182;BME280;16990;49.056;9.240;2022-10-13T10:45:55;99143.34;;;16.16;89.69
30182;BME280;16990;49.056;9.240;2022-10-13T10:48:23;99147.63;;;16.12;90.38
30182;BME280;16990;49.056;9.240;2022-10-13T10:50:52;99138.22;;;16.20;90.50
30182;BME280;16990;49.056;9.240;2022-10-13T10:53:26;99141.19;;;16.19;89.19
30182;BME280;16990;49.056;9.240;2022-10-13T10:56:02;99126.06;;;16.17;90.27
30182;BME280;16990;49.056;9.240;2022-10-13T10:58:39;99133.72;;;16.31;90.58
30182;BME280;16990;49.056;9.240;2022-10-13T11:01:18;99120.28;;;16.46;88.81
30182;BME280;16990;49.056;9.240;2022-10-13T11:03:53;99116.03;;;16.61;87.58
30182;BME280;16990;49.056;9.240;2022-10-13T11:06:30;99118.72;;;16.55;87.72
30182;BME280;16990;49.056;9.240;2022-10-13T11:08:58;99099.25;;;16.53;87.94
30182;BME280;16990;49.056;9.240;2022-10-13T11:14:22;99092.75;;;16.49;88.19
30182;BME280;16990;49.056;9.240;2022-10-13T11:17:14;99090.09;;;16.54;87.20
30182;BME280;16990;49.056;9.240;2022-10-13T11:19:42;99081.13;;;16.44;87.60
30182;BME280;16990;49.056;9.240;2022-10-13T11:22:11;99097.94;;;16.61;87.05
30182;BME280;16990;49.056;9.240;2022-10-13T11:24:52;99092.28;;;16.63;87.13
30182;BME280;16990;49.056;9.240;2022-10-13T11:27:37;99091.75;;;16.71;86.51
30182;BME280;16990;49.056;9.240;2022-10-13T11:30:28;99084.22;;;16.78;86.65
30182;BME280;16990;49.056;9.240;2022-10-13T11:32:58;99079.09;;;16.71;86.34
30182;BME280;16990;49.056;9.240;2022-10-13T11:35:33;99081.28;;;16.79;85.52
30182;BME280;16990;49.056;9.240;2022-10-13T11:38:19;99068.88;;;16.78;85.75
30182;BME280;16990;49.056;9.240;2022-10-13T11:41:04;99070.50;;;16.79;86.16
30182;BME280;16990;49.056;9.240;2022-10-13T11:43:44;99069.16;;;16.97;84.57
30182;BME280;16990;49.056;9.240;2022-10-13T11:46:23;99073.50;;;16.98;85.10
30182;BME280;16990;49.056;9.240;2022-10-13T11:49:19;99058.91;;;16.99;84.67
30182;BME280;16990;49.056;9.240;2022-10-13T11:52:09;99050.81;;;17.05;84.69
30182;BME280;16990;49.056;9.240;2022-10-13T11:54:47;99053.53;;;17.20;84.02
30182;BME280;16990;49.056;9.240;2022-10-13T11:57:19;99045.44;;;17.46;82.99
30182;BME280;16990;49.056;9.240;2022-10-13T11:59:50;99040.31;;;17.49;81.83
30182;BME280;16990;49.056;9.240;2022-10-13T12:02:20;99041.13;;;17.39;82.33
30182;BME280;16990;49.056;9.240;2022-10-13T12:05:03;99038.94;;;17.52;81.12
30182;BME280;16990;49.056;9.240;2022-10-13T12:07:33;99034.63;;;17.51;81.99
30182;BME280;16990;49.056;9.240;2022-10-13T12:10:02;99015.16;;;17.33;82.87
30182;BME280;16990;49.056;9.240;2022-10-13T12:12:31;99018.16;;;17.27;82.16
30182;BME280;16990;49.056;9.240;2022-10-13T12:14:59;99019.50;;;17.34;82.17
30182;BME280;16990;49.056;9.240;2022-10-13T12:17:29;99020.84;;;17.42;82.25
30182;BME280;16990;49.056;9.240;2022-10-13T12:19:57;99020.03;;;17.47;81.65
30182;BME280;16990;49.056;9.240;2022-10-13T12:22:25;99026.22;;;17.52;82.22
30182;BME280;16990;49.056;9.240;2022-10-13T12:24:56;99017.81;;;17.69;81.16
30182;BME280;16990;49.056;9.240;2022-10-13T12:27:23;99017.03;;;17.84;79.47
30182;BME280;16990;49.056;9.240;2022-10-13T12:29:51;99006.47;;;17.62;80.28
30182;BME280;16990;49.056;9.240;2022-10-13T12:32:21;99005.16;;;17.54;80.87
30182;BME280;16990;49.056;9.240;2022-10-13T12:34:48;99009.19;;;17.57;80.59
30182;BME280;16990;49.056;9.240;2022-10-13T12:37:23;99003.25;;;17.65;80.74
30182;BME280;16990;49.056;9.240;2022-10-13T12:39:50;98995.09;;;17.85;79.18
30182;BME280;16990;49.056;9.240;2022-10-13T12:42:17;98982.06;;;17.98;78.16
30182;BME280;16990;49.056;9.240;2022-10-13T12:44:44;98981.03;;;17.83;79.66
30182;BME280;16990;49.056;9.240;2022-10-13T12:47:38;98974.56;;;17.74;79.04
30182;BME280;16990;49.056;9.240;2022-10-13T12:50:35;98978.06;;;17.80;78.76
30182;BME280;16990;49.056;9.240;2022-10-13T12:53:08;98962.44;;;17.51;80.83
30182;BME280;16990;49.056;9.240;2022-10-13T12:55:49;98973.00;;;17.37;80.12
30182;BME280;16990;49.056;9.240;2022-10-13T12:58:22;98981.66;;;17.39;81.22
30182;BME280;16990;49.056;9.240;2022-10-13T13:01:02;98978.94;;;17.44;80.35
30182;BME280;16990;49.056;9.240;2022-10-13T13:03:33;98971.91;;;17.49;80.91
30182;BME280;16990;49.056;9.240;2022-10-13T13:06:23;98977.31;;;17.54;81.29
30182;BME280;16990;49.056;9.240;2022-10-13T13:12:20;98969.16;;;17.69;80.28
30182;BME280;16990;49.056;9.240;2022-10-13T13:14:48;98985.91;;;17.76;80.36
30182;BME280;16990;49.056;9.240;2022-10-13T13:17:30;98968.66;;;17.57;80.11
30182;BME280;16990;49.056;9.240;2022-10-13T13:19:59;98974.59;;;17.59;80.44